Time;durP1;ratioP1;P1;durP2;ratioP2;P2;SDS_P1;SDS_P2;PMS_P1;PMS_P2;Temp;Humidity;BMP_temperature;BMP_pressure;BME280_temperature;BME280_humidity;BME280_pressure;Samples;Min_cycle;Max_cycle;Signal;HPM_P1;HPM_P2
2022/04/01 00:00:20;;;;;;;;;1.00;1.00;;;;;15.00;37.12;96546.97;4886897;28;104593;-90
2022/04/01 00:02:47;;;;;;;;;3.00;3.00;;;;;15.01;36.61;96543.16;4878906;28;103380;-91
2022/04/01 00:05:15;;;;;;;;;1.75;1.00;;;;;14.99;36.66;96534.47;4886400;28;102195;-90
2022/04/01 00:07:42;;;;;;;;;2.00;2.00;;;;;14.98;37.14;96538.28;4851241;28;102363;-90
2022/04/01 00:10:09;;;;;;;;;1.00;1.00;;;;;14.97;36.45;96533.91;4893557;28;102113;-91
2022/04/01 00:12:44;;;;;;;;;2.25;2.25;;;;;14.99;36.65;96531.75;4897000;28;103873;-90
2022/04/01 00:15:12;;;;;;;;;2.00;1.25;;;;;14.99;36.65;96523.56;4891061;28;102204;-91
2022/04/01 00:17:40;;;;;;;;;1.00;1.00;;;;;14.98;36.44;96521.94;4888371;28;102628;-90
2022/04/01 00:20:09;;;;;;;;;1.75;1.75;;;;;14.98;37.06;96521.94;4894701;28;107124;-91
2022/04/01 00:22:37;;;;;;;;;1.00;1.00;;;;;14.98;36.78;96524.66;4907552;28;103547;-90
2022/04/01 00:25:05;;;;;;;;;1.50;1.00;;;;;14.98;36.85;96526.56;4904196;28;101557;-91
2022/04/01 00:27:32;;;;;;;;;2.00;2.00;;;;;14.98;37.08;96526.56;4903044;28;102139;-91
2022/04/01 00:29:59;;;;;;;;;2.00;2.00;;;;;14.97;36.39;96520.31;4908469;28;102209;-91
2022/04/01 00:32:28;;;;;;;;;2.75;1.75;;;;;14.97;36.58;96519.50;4880476;28;106474;-91
2022/04/01 00:34:55;;;;;;;;;2.75;2.00;;;;;14.95;36.58;96522.47;4900158;28;101892;-90
2022/04/01 00:37:22;;;;;;;;;1.25;1.25;;;;;14.97;36.88;96524.94;4875340;28;102114;-90
2022/04/01 00:39:49;;;;;;;;;3.00;2.00;;;;;14.94;36.94;96515.44;4895507;28;102333;-90
2022/04/01 00:42:17;;;;;;;;;3.00;2.00;;;;;14.93;37.16;96524.69;4891988;28;103415;-90
2022/04/01 00:44:44;;;;;;;;;1.75;1.00;;;;;14.94;36.70;96520.06;4894256;28;101894;-91
2022/04/01 00:47:17;;;;;;;;;1.25;1.25;;;;;14.94;36.55;96518.16;4903734;28;102305;-85
2022/04/01 00:49:44;;;;;;;;;1.00;1.00;;;;;14.94;37.06;96517.34;4889007;28;102646;-91
2022/04/01 00:52:14;;;;;;;;;3.25;2.00;;;;;14.91;36.45;96515.97;4891996;28;103410;-91
2022/04/01 00:54:41;;;;;;;;;1.00;1.00;;;;;14.92;36.28;96514.88;4877488;28;102270;-91
2022/04/01 00:57:10;;;;;;;;;2.00;1.00;;;;;14.94;36.79;96514.63;4894337;28;102244;-91
2022/04/01 00:59:38;;;;;;;;;1.50;1.50;;;;;14.92;36.83;96511.34;4890405;28;101788;-91
2022/04/01 01:02:05;;;;;;;;;2.25;1.00;;;;;14.92;36.43;96509.44;4882852;28;103800;-91
2022/04/01 01:04:32;;;;;;;;;2.00;2.00;;;;;14.93;36.65;96518.44;4891888;28;102146;-91
2022/04/01 01:07:01;;;;;;;;;2.00;2.00;;;;;14.93;36.96;96511.09;4893348;28;103948;-91
2022/04/01 01:09:28;;;;;;;;;2.00;1.75;;;;;14.91;36.76;96509.72;4876646;28;101889;-90
2022/04/01 01:11:55;;;;;;;;;1.75;1.00;;;;;14.93;36.82;96512.97;4873777;28;103546;-91
2022/04/01 01:14:33;;;;;;;;;2.00;1.00;;;;;14.91;36.34;96505.09;4895875;28;102170;-91
2022/04/01 01:17:02;;;;;;;;;0.00;0.00;;;;;14.90;36.72;96499.94;4895920;28;103253;-91
2022/04/01 01:19:32;;;;;;;;;1.25;1.25;;;;;14.90;36.33;96511.66;4887884;28;102288;-90
2022/04/01 01:21:59;;;;;;;;;2.25;2.25;;;;;14.90;37.00;96510.84;4902048;28;103428;-91
2022/04/01 01:24:37;;;;;;;;;1.00;1.00;;;;;14.89;36.75;96509.19;4912318;28;103034;-91
2022/04/01 01:27:06;;;;;;;;;1.75;1.25;;;;;14.88;36.54;96496.69;4908305;28;105342;-91
2022/04/01 01:29:35;;;;;;;;;2.00;2.00;;;;;14.85;36.87;96506.22;4912846;28;101933;-90
2022/04/01 01:32:04;;;;;;;;;0.75;0.75;;;;;14.87;36.42;96508.66;4886683;28;103425;-91
2022/04/01 01:34:32;;;;;;;;;0.00;0.00;;;;;14.87;36.65;96503.22;4882165;28;101902;-91
2022/04/01 01:37:00;;;;;;;;;0.75;0.75;;;;;14.88;36.76;96502.94;4886770;28;101866;-91
2022/04/01 01:39:27;;;;;;;;;0.25;0.25;;;;;14.86;36.18;96494.22;4903940;28;102154;-91
2022/04/01 01:41:55;;;;;;;;;1.00;0.50;;;;;14.87;36.30;96498.59;4913599;28;108256;-90
2022/04/01 01:44:23;;;;;;;;;0.00;0.00;;;;;14.86;36.60;96486.06;4904393;28;101950;-91
2022/04/01 01:46:50;;;;;;;;;0.00;0.00;;;;;14.86;36.87;96486.06;4885410;28;102056;-89
2022/04/01 01:49:20;;;;;;;;;1.00;1.00;;;;;14.87;36.57;96493.13;4906770;28;101844;-92
2022/04/01 01:54:45;;;;;;;;;1.75;0.00;;;;;14.84;36.60;96476.56;4899478;28;102401;-91
2022/04/01 01:57:17;;;;;;;;;0.25;0.25;;;;;14.84;36.24;96471.94;4901488;28;101875;-91
2022/04/01 01:59:44;;;;;;;;;1.25;1.25;;;;;14.82;36.59;96471.41;4886423;28;102517;-91
2022/04/01 02:02:14;;;;;;;;;1.00;1.00;;;;;14.82;36.69;96474.13;4888239;28;103282;-91
2022/04/01 02:04:42;;;;;;;;;1.00;1.00;;;;;14.81;36.72;96467.06;4899835;28;101791;-91
2022/04/01 02:07:09;;;;;;;;;1.00;1.00;;;;;14.82;36.50;96476.03;4900466;28;102148;-91
2022/04/01 02:09:37;;;;;;;;;1.00;0.75;;;;;14.83;36.74;96477.66;4893704;28;101971;-91
2022/04/01 02:12:05;;;;;;;;;0.75;0.50;;;;;14.82;36.77;96479.56;4893808;28;103417;-91
2022/04/01 02:14:33;;;;;;;;;0.75;0.50;;;;;14.81;36.41;96467.06;4911372;28;101781;-92
2022/04/01 02:17:00;;;;;;;;;1.50;0.00;;;;;14.82;36.34;96462.41;4893916;28;102343;-91
2022/04/01 02:19:30;;;;;;;;;0.00;0.00;;;;;14.82;36.37;96459.69;4891752;28;101752;-91
2022/04/01 02:21:58;;;;;;;;;1.50;1.00;;;;;14.82;36.58;96455.06;4892908;28;103400;-90
2022/04/01 02:24:26;;;;;;;;;1.00;1.00;;;;;14.81;36.78;96456.19;4896249;28;101998;-90
2022/04/01 02:26:53;;;;;;;;;0.25;0.00;;;;;14.81;36.16;96456.19;4889049;28;102027;-91
2022/04/01 02:29:21;;;;;;;;;1.00;1.00;;;;;14.81;36.74;96455.38;4907831;28;105317;-89
2022/04/01 02:31:50;;;;;;;;;1.25;1.00;;;;;14.81;36.22;96455.38;4883649;28;107813;-91
2022/04/01 02:34:20;;;;;;;;;0.25;0.25;;;;;14.81;36.27;96455.38;4882085;28;102103;-91
2022/04/01 02:36:47;;;;;;;;;1.00;1.00;;;;;14.80;36.72;96456.47;4903360;28;102081;-91
2022/04/01 02:39:15;;;;;;;;;1.00;1.00;;;;;14.79;36.13;96468.44;4889112;28;102019;-91
2022/04/01 02:41:42;;;;;;;;;1.00;1.00;;;;;14.78;36.98;96461.34;4882472;28;104295;-91
2022/04/01 02:44:09;;;;;;;;;1.00;1.00;;;;;14.79;36.24;96469.25;4908050;28;102084;-90
2022/04/01 02:46:37;;;;;;;;;0.75;0.75;;;;;14.78;36.36;96462.16;4892598;28;104687;-91
2022/04/01 02:49:06;;;;;;;;;0.00;0.00;;;;;14.78;36.55;96450.47;4888855;28;102293;-91
2022/04/01 02:51:36;;;;;;;;;0.00;0.00;;;;;14.77;36.69;96451.59;4893759;28;103655;-91
2022/04/01 02:54:06;;;;;;;;;0.00;0.00;;;;;14.76;36.30;96442.59;4887538;28;102259;-91
2022/04/01 02:56:35;;;;;;;;;2.00;1.00;;;;;14.75;36.86;96446.41;4903846;28;102182;-91
2022/04/01 02:59:02;;;;;;;;;0.00;0.00;;;;;14.74;36.47;96447.50;4914817;28;102127;-91
2022/04/01 03:01:30;;;;;;;;;0.75;0.75;;;;;14.74;36.65;96459.19;4901622;28;103395;-91
2022/04/01 03:03:58;;;;;;;;;1.00;0.75;;;;;14.74;36.48;96456.47;4902940;28;102037;-89
2022/04/01 03:06:25;;;;;;;;;1.00;1.00;;;;;14.76;36.09;96463.56;4890102;28;102877;-91
2022/04/01 03:08:53;;;;;;;;;0.50;0.50;;;;;14.76;36.55;96469.00;4888430;28;102155;-90
2022/04/01 03:11:20;;;;;;;;;0.00;0.00;;;;;14.75;36.63;96457.28;4900419;28;103513;-91
2022/04/01 03:13:47;;;;;;;;;1.00;1.00;;;;;14.74;36.26;96461.09;4898645;28;102012;-91
2022/04/01 03:16:14;;;;;;;;;1.00;0.75;;;;;14.74;36.82;96455.66;4880285;28;101936;-91
2022/04/01 03:18:41;;;;;;;;;0.25;0.25;;;;;14.75;36.10;96449.13;4889961;28;102289;-90
2022/04/01 03:21:11;;;;;;;;;1.00;0.00;;;;;14.74;36.35;96445.59;4898560;28;103444;-91
2022/04/01 03:23:39;;;;;;;;;0.75;0.75;;;;;14.74;36.93;96447.50;4890948;28;102116;-91
2022/04/01 03:26:06;;;;;;;;;1.00;1.00;;;;;14.74;36.66;96439.34;4868916;28;102043;-90
2022/04/01 03:28:37;;;;;;;;;0.75;0.75;;;;;14.75;36.30;96438.25;4893687;28;101856;-91
2022/04/01 03:31:04;;;;;;;;;1.00;1.00;;;;;14.76;36.82;96442.59;4879824;28;103495;-91
2022/04/01 03:33:32;;;;;;;;;0.00;0.00;;;;;14.71;36.60;96439.91;4883367;28;102420;-91
2022/04/01 03:35:59;;;;;;;;;0.00;0.00;;;;;14.73;36.87;96454.03;4888274;28;103507;-91
2022/04/01 03:38:26;;;;;;;;;1.00;1.00;;;;;14.72;36.69;96453.22;4883324;28;102839;-91
2022/04/01 03:40:53;;;;;;;;;0.50;0.50;;;;;14.72;36.33;96455.16;4897078;28;103495;-91
2022/04/01 03:43:21;;;;;;;;;0.00;0.00;;;;;14.71;36.81;96456.22;4910217;28;102062;-90
2022/04/01 03:45:49;;;;;;;;;0.00;0.00;;;;;14.71;36.49;96462.50;4883660;28;102693;-91
2022/04/01 03:48:29;;;;;;;;;0.00;0.00;;;;;14.72;36.37;96458.66;4891877;28;103212;-90
2022/04/01 03:50:59;;;;;;;;;0.50;0.25;;;;;14.71;36.12;96450.78;4885802;28;108663;-91
2022/04/01 03:53:28;;;;;;;;;1.00;0.50;;;;;14.70;36.27;96455.41;4907306;28;101774;-91
2022/04/01 03:55:57;;;;;;;;;0.00;0.00;;;;;14.70;36.25;96449.97;4879214;28;103619;-91
2022/04/01 03:58:30;;;;;;;;;0.00;0.00;;;;;14.72;36.24;96463.31;4875629;28;103913;-90
2022/04/01 04:00:58;;;;;;;;;0.00;0.00;;;;;14.72;35.93;96471.47;4902967;28;103398;-91
2022/04/01 04:03:27;;;;;;;;;0.00;0.00;;;;;14.71;36.22;96465.22;4878162;28;103280;-91
2022/04/01 04:05:54;;;;;;;;;0.25;0.00;;;;;14.71;36.06;96467.13;4887530;28;102067;-90
2022/04/01 04:08:22;;;;;;;;;0.00;0.00;;;;;14.70;36.14;96476.34;4904149;28;103178;-91
2022/04/01 04:10:50;;;;;;;;;0.00;0.00;;;;;14.69;36.26;96472.81;4905453;28;108130;-91
2022/04/01 04:13:17;;;;;;;;;0.00;0.00;;;;;14.69;36.36;96474.72;4896348;28;102143;-91
2022/04/01 04:16:15;;;;;;;;;0.00;0.00;;;;;14.69;36.63;96464.66;4902658;28;102054;-90
2022/04/01 04:18:45;;;;;;;;;0.00;0.00;;;;;14.69;36.72;96475.53;4889092;28;102565;-90
2022/04/01 04:21:22;;;;;;;;;0.00;0.00;;;;;14.69;36.51;96472.00;4883644;28;103377;-91
2022/04/01 04:23:59;;;;;;;;;0.00;0.00;;;;;14.68;36.06;96486.69;4903448;28;102193;-91
2022/04/01 04:26:43;;;;;;;;;1.00;0.00;;;;;14.66;36.70;96478.81;4891571;28;101648;-90
2022/04/01 04:29:12;;;;;;;;;0.00;0.00;;;;;14.68;36.18;96475.81;4895675;28;101893;-92
2022/04/01 04:31:55;;;;;;;;;1.00;0.00;;;;;14.67;36.22;96479.66;4894935;28;104974;-91
2022/04/01 04:34:22;;;;;;;;;0.00;0.00;;;;;14.66;36.15;96476.09;4895001;28;101981;-91
2022/04/01 04:36:51;;;;;;;;;0.00;0.00;;;;;14.66;36.03;96470.66;4881797;28;103038;-89
2022/04/01 04:39:30;;;;;;;;;0.00;0.00;;;;;14.66;36.29;96475.28;4879353;28;103975;-88
2022/04/01 04:41:57;;;;;;;;;1.00;0.00;;;;;14.67;36.53;96474.22;4880818;28;107926;-89
2022/04/01 04:44:27;;;;;;;;;0.00;0.00;;;;;14.67;36.04;96479.66;4896567;28;102151;-89
2022/04/01 04:46:56;;;;;;;;;1.50;0.75;;;;;14.67;36.18;96487.81;4893581;28;103574;-87
2022/04/01 04:49:24;;;;;;;;;1.00;1.00;;;;;14.66;36.10;96488.88;4886630;28;102588;-88
2022/04/01 04:51:52;;;;;;;;;0.00;0.00;;;;;14.66;36.69;96491.63;4913723;28;108111;-89
2022/04/01 04:54:19;;;;;;;;;1.00;1.00;;;;;14.65;36.18;96492.69;4907503;28;101995;-89
2022/04/01 04:56:47;;;;;;;;;0.00;0.00;;;;;14.64;36.40;96488.34;4910174;28;101788;-88
2022/04/01 04:59:14;;;;;;;;;1.00;1.00;;;;;14.63;36.74;96492.97;4900533;28;101866;-89
2022/04/01 05:01:43;;;;;;;;;0.75;0.75;;;;;14.64;35.99;96488.34;4863438;28;103413;-89
2022/04/01 05:04:27;;;;;;;;;1.00;0.25;;;;;14.58;35.95;96479.41;4864265;28;104011;-89
2022/04/01 05:07:19;;;;;;;;;0.00;0.00;;;;;14.64;35.92;96493.78;4885552;28;101938;-89
2022/04/01 05:10:04;;;;;;;;;2.00;1.00;;;;;14.62;36.27;96498.69;4896145;28;102711;-89
2022/04/01 05:12:34;;;;;;;;;0.75;0.75;;;;;14.64;35.97;96504.66;4876588;28;108116;-88
2022/04/01 05:15:08;;;;;;;;;0.00;0.00;;;;;14.62;35.99;96495.97;4878440;28;102228;-88
2022/04/01 05:18:06;;;;;;;;;1.25;0.75;;;;;14.62;36.16;96490.53;4889177;28;103706;-88
2022/04/01 05:20:36;;;;;;;;;0.50;0.50;;;;;14.63;36.40;96500.34;4861808;28;102158;-88
2022/04/01 05:23:16;;;;;;;;;1.00;1.00;;;;;14.63;35.94;96486.75;4882383;28;103604;-89
2022/04/01 05:25:54;;;;;;;;;1.75;1.00;;;;;14.63;36.07;96486.75;4884920;28;102060;-88
2022/04/01 05:28:23;;;;;;;;;1.00;1.00;;;;;14.61;35.93;96478.84;4900435;28;102319;-89
2022/04/01 05:31:06;;;;;;;;;1.00;1.00;;;;;14.62;36.40;96490.53;4879708;28;101780;-88
2022/04/01 05:34:09;;;;;;;;;0.75;0.75;;;;;14.62;36.21;96490.53;4874655;28;108262;-88
2022/04/01 05:36:42;;;;;;;;;1.00;1.00;;;;;14.61;36.32;96478.03;4895658;28;102046;-88
2022/04/01 05:39:09;;;;;;;;;1.00;0.75;;;;;14.61;36.32;96495.16;4902675;28;101916;-88
2022/04/01 05:41:36;;;;;;;;;1.00;1.00;;;;;14.61;36.01;96494.34;4902811;28;103253;-88
2022/04/01 05:44:04;;;;;;;;;0.75;0.75;;;;;14.61;35.80;96499.78;4867251;28;103379;-89
2022/04/01 05:46:31;;;;;;;;;1.00;1.00;;;;;14.61;36.20;96499.78;4902946;28;102096;-88
2022/04/01 05:48:59;;;;;;;;;1.00;1.00;;;;;14.60;36.35;96498.97;4851014;28;102409;-88
2022/04/01 05:51:27;;;;;;;;;2.75;1.25;;;;;14.59;36.04;96494.63;4916100;28;102972;-87
2022/04/01 05:53:54;;;;;;;;;1.25;1.00;;;;;14.60;36.45;96495.44;4877627;28;103434;-88
2022/04/01 05:56:21;;;;;;;;;1.00;1.00;;;;;14.61;36.01;96500.59;4890678;28;102215;-88
2022/04/01 05:58:48;;;;;;;;;1.50;1.50;;;;;14.62;35.88;96493.25;4875329;28;102186;-89
2022/04/01 06:01:40;;;;;;;;;1.00;1.00;;;;;14.63;35.91;96498.41;4908045;28;103279;-88
2022/04/01 06:04:25;;;;;;;;;1.00;1.00;;;;;14.63;36.02;96498.41;4892434;28;108440;-88
2022/04/01 06:06:58;;;;;;;;;1.00;1.00;;;;;14.63;35.79;96503.84;4896533;28;102976;-89
2022/04/01 06:09:28;;;;;;;;;1.00;1.00;;;;;14.63;35.82;96505.78;4908904;28;102160;-87
2022/04/01 06:12:21;;;;;;;;;0.00;0.00;;;;;14.63;36.00;96505.78;4908459;28;102182;-88
2022/04/01 06:15:14;;;;;;;;;2.00;1.50;;;;;14.63;35.79;96505.78;4887971;28;107888;-91
2022/04/01 06:17:47;;;;;;;;;1.25;1.25;;;;;14.62;36.21;96504.97;4905294;28;102827;-88
2022/04/01 06:20:16;;;;;;;;;1.00;1.00;;;;;14.62;36.69;96502.25;4882083;28;102247;-91
2022/04/01 06:22:58;;;;;;;;;1.00;1.00;;;;;14.63;36.58;96508.50;4893633;28;102236;-91
2022/04/01 06:25:31;;;;;;;;;2.00;1.25;;;;;14.64;36.49;96520.97;4875343;28;108039;-90
2022/04/01 06:28:26;;;;;;;;;1.00;1.00;;;;;14.64;36.49;96507.38;4871601;28;102031;-89
2022/04/01 06:30:55;;;;;;;;;2.00;2.00;;;;;14.63;36.16;96508.50;4882960;28;102140;-90
2022/04/01 06:33:48;;;;;;;;;2.00;1.50;;;;;14.62;36.50;96507.69;4896735;28;102043;-89
2022/04/01 06:36:20;;;;;;;;;1.75;1.75;;;;;14.63;36.17;96509.28;4897194;28;108077;-89
2022/04/01 06:38:53;;;;;;;;;1.00;1.00;;;;;14.63;36.56;96503.06;4884561;28;102214;-88
2022/04/01 06:41:23;;;;;;;;;3.00;2.00;;;;;14.63;37.20;96508.50;4860371;28;102055;-89
2022/04/01 06:43:50;;;;;;;;;4.50;4.50;;;;;14.65;38.17;96506.28;4880748;28;103431;-90
2022/04/01 06:46:17;;;;;;;;;4.50;4.00;;;;;14.66;37.75;96513.38;4901412;28;103235;-90
2022/04/01 06:48:44;;;;;;;;;4.50;4.00;;;;;14.68;36.95;96506.56;4888940;28;102176;-90
2022/04/01 06:51:12;;;;;;;;;7.00;6.00;;;;;14.67;36.97;96509.56;4896059;28;105135;-90
2022/04/01 06:53:40;;;;;;;;;5.00;5.00;;;;;14.67;37.07;96515.81;4886543;28;101792;-90
2022/04/01 06:56:11;;;;;;;;;3.50;3.50;;;;;14.69;37.23;96510.09;4895853;28;103554;-90
2022/04/01 06:58:38;;;;;;;;;5.00;4.00;;;;;14.68;36.53;96503.81;4898535;28;102363;-90
2022/04/01 07:01:05;;;;;;;;;5.75;4.00;;;;;14.69;36.45;96515.53;4900561;28;102273;-90
2022/04/01 07:03:33;;;;;;;;;6.00;6.00;;;;;14.69;36.51;96507.38;4903055;28;102155;-90
2022/04/01 07:06:02;;;;;;;;;4.00;3.25;;;;;14.69;36.38;96512.81;4902218;28;103381;-91
2022/04/01 07:08:29;;;;;;;;;4.75;4.50;;;;;14.69;36.43;96515.53;4891457;28;102400;-90
2022/04/01 07:10:56;;;;;;;;;4.25;4.25;;;;;14.69;36.19;96508.19;4903275;28;102484;-91
2022/04/01 07:13:23;;;;;;;;;4.00;4.00;;;;;14.71;36.56;96518.78;4866864;28;102560;-91
2022/04/01 07:15:50;;;;;;;;;6.00;5.00;;;;;14.70;36.25;96506.28;4890422;28;103482;-91
2022/04/01 07:18:18;;;;;;;;;5.75;5.75;;;;;14.70;36.44;96511.72;4876044;28;102326;-91
2022/04/01 07:20:48;;;;;;;;;6.50;5.75;;;;;14.71;36.61;96516.06;4891494;28;101952;-91
2022/04/01 07:23:15;;;;;;;;;5.00;4.00;;;;;14.70;36.50;96525.31;4893971;28;102139;-91
2022/04/01 07:25:42;;;;;;;;;5.00;5.00;;;;;14.71;36.30;96521.53;4886135;28;103495;-92
2022/04/01 07:28:09;;;;;;;;;5.00;4.00;;;;;14.73;36.02;96522.03;4892266;28;102226;-91
2022/04/01 07:30:37;;;;;;;;;6.25;4.50;;;;;14.73;36.65;96524.75;4880197;28;101860;-91
2022/04/01 07:33:05;;;;;;;;;4.50;4.50;;;;;14.72;36.36;96518.50;4898286;28;102313;-91
2022/04/01 07:35:34;;;;;;;;;4.00;4.00;;;;;14.72;36.41;96521.22;4880084;28;103936;-90
2022/04/01 07:38:01;;;;;;;;;6.50;5.50;;;;;14.73;35.94;96519.31;4897639;28;102200;-90
2022/04/01 07:40:28;;;;;;;;;4.00;4.00;;;;;14.73;35.93;96525.56;4896484;28;101736;-91
2022/04/01 07:42:55;;;;;;;;;6.50;6.00;;;;;14.72;36.08;96523.16;4874103;28;102174;-91
2022/04/01 07:45:22;;;;;;;;;4.75;4.75;;;;;14.73;36.41;96517.41;4890891;28;108064;-91
2022/04/01 07:47:51;;;;;;;;;4.00;4.00;;;;;14.74;36.11;96520.94;4889925;28;102166;-88
2022/04/01 07:50:19;;;;;;;;;4.00;3.75;;;;;14.74;35.80;96521.78;4884006;28;102002;-91
2022/04/01 07:52:46;;;;;;;;;4.50;4.00;;;;;14.76;36.26;96520.69;4883599;28;102289;-91
2022/04/01 07:55:14;;;;;;;;;4.50;4.00;;;;;14.76;35.97;96521.50;4897429;28;103397;-91
2022/04/01 07:57:42;;;;;;;;;4.00;4.00;;;;;14.76;36.30;96523.41;4906510;28;101916;-90
2022/04/01 08:00:14;;;;;;;;;5.50;5.00;;;;;14.76;35.97;96524.22;4908775;28;103526;-90
2022/04/01 08:02:42;;;;;;;;;7.75;5.75;;;;;14.77;36.34;96530.47;4899355;28;102043;-90
2022/04/01 08:05:09;;;;;;;;;3.00;3.00;;;;;14.77;35.84;96531.28;4894167;28;103870;-90
2022/04/01 08:07:37;;;;;;;;;3.50;3.50;;;;;14.78;36.02;96530.19;4905755;28;101657;-90
2022/04/01 08:10:05;;;;;;;;;3.25;3.25;;;;;14.78;35.78;96532.91;4890922;28;102005;-90
2022/04/01 08:12:39;;;;;;;;;4.75;4.25;;;;;14.79;35.81;96531.00;4882127;28;101897;-90
2022/04/01 08:15:07;;;;;;;;;4.50;3.75;;;;;14.79;35.62;96531.81;4894286;28;103434;-91
2022/04/01 08:17:34;;;;;;;;;4.00;4.00;;;;;14.80;35.76;96540.81;4883188;28;101849;-90
2022/04/01 08:20:01;;;;;;;;;6.00;3.50;;;;;14.80;35.58;96530.72;4894909;28;102356;-90
2022/04/01 08:22:28;;;;;;;;;4.50;4.50;;;;;14.80;35.64;96527.19;4917701;28;107379;-86
2022/04/01 08:24:55;;;;;;;;;4.00;4.00;;;;;14.81;36.14;96526.09;4913863;28;107682;-90
2022/04/01 08:27:22;;;;;;;;;3.75;3.75;;;;;14.81;36.18;96543.25;4907752;28;102172;-91
2022/04/01 08:29:49;;;;;;;;;3.00;3.00;;;;;14.81;35.71;96537.00;4899212;28;101604;-90
2022/04/01 08:32:16;;;;;;;;;3.75;3.75;;;;;14.80;36.04;96546.25;4901464;28;101904;-91
2022/04/01 08:34:44;;;;;;;;;6.25;5.00;;;;;14.81;35.79;96547.88;4900386;28;103592;-90
2022/04/01 08:37:10;;;;;;;;;3.25;3.00;;;;;14.82;36.14;96549.47;4900020;28;102301;-91
2022/04/01 08:39:43;;;;;;;;;4.00;4.00;;;;;14.81;35.67;96543.25;4917987;28;101832;-90
2022/04/01 08:42:11;;;;;;;;;4.00;3.50;;;;;14.82;35.83;96544.84;4895656;28;102315;-90
2022/04/01 08:44:41;;;;;;;;;4.00;4.00;;;;;14.81;35.52;96543.25;4899389;28;103768;-91
2022/04/01 08:47:08;;;;;;;;;4.00;2.25;;;;;14.81;35.78;96537.81;4908410;28;101626;-91
2022/04/01 08:49:35;;;;;;;;;3.00;3.00;;;;;14.82;36.02;96550.28;4906398;28;101824;-90
2022/04/01 08:52:04;;;;;;;;;3.00;3.00;;;;;14.84;35.98;96541.88;4896520;28;102374;-89
2022/04/01 08:54:34;;;;;;;;;3.50;3.50;;;;;14.84;35.70;96544.59;4878103;28;103191;-91
2022/04/01 08:57:01;;;;;;;;;3.00;3.00;;;;;14.85;35.42;96548.94;4899135;28;102167;-90
2022/04/01 08:59:29;;;;;;;;;2.75;2.75;;;;;14.86;35.64;96545.94;4889164;28;104519;-91
2022/04/01 09:02:07;;;;;;;;;3.00;3.00;;;;;14.87;35.80;96550.28;4897156;28;102171;-91
2022/04/01 09:04:34;;;;;;;;;3.00;3.00;;;;;14.87;35.99;96550.28;4891413;28;108255;-91
2022/04/01 09:07:14;;;;;;;;;3.75;3.75;;;;;14.88;35.43;96554.63;4885356;28;102271;-91
2022/04/01 09:09:41;;;;;;;;;3.50;3.50;;;;;14.89;35.84;96559.00;4908990;28;101985;-91
2022/04/01 09:12:15;;;;;;;;;3.75;3.50;;;;;14.88;35.63;96557.34;4904093;28;101842;-92
2022/04/01 09:14:51;;;;;;;;;4.00;3.00;;;;;14.89;35.80;96561.72;4906227;28;103514;-91
2022/04/01 09:17:18;;;;;;;;;3.75;3.50;;;;;14.89;35.70;96561.72;4895981;28;102042;-92
2022/04/01 09:19:48;;;;;;;;;3.00;3.00;;;;;14.88;35.51;96554.63;4879838;28;101898;-91
2022/04/01 09:22:19;;;;;;;;;4.00;3.00;;;;;14.90;35.90;96560.63;4902300;28;102146;-91
2022/04/01 09:24:57;;;;;;;;;3.25;3.00;;;;;14.92;35.54;96568.50;4882270;28;103261;-92
2022/04/01 09:27:47;;;;;;;;;3.25;3.25;;;;;14.94;35.90;96571.75;4900751;28;102159;-91
2022/04/01 09:30:31;;;;;;;;;3.00;3.00;;;;;14.94;35.80;96569.88;4883179;28;102164;-92
2022/04/01 09:33:01;;;;;;;;;2.00;2.00;;;;;14.94;35.86;96574.50;4892602;28;101730;-91
2022/04/01 09:35:30;;;;;;;;;2.50;2.00;;;;;14.94;35.33;96579.94;4901934;28;108159;-92
2022/04/01 09:37:59;;;;;;;;;3.50;3.00;;;;;14.93;35.79;96573.66;4908175;28;103501;-91
2022/04/01 09:40:26;;;;;;;;;3.75;3.00;;;;;14.92;35.60;96574.75;4893936;28;102217;-92
2022/04/01 09:42:59;;;;;;;;;5.00;3.75;;;;;14.93;35.34;96570.94;4892655;28;101950;-92
2022/04/01 09:45:28;;;;;;;;;3.00;3.00;;;;;14.94;35.45;96569.88;4895788;28;108699;-91
2022/04/01 09:48:00;;;;;;;;;3.00;3.00;;;;;14.95;35.12;96574.19;4891541;28;102127;-91
2022/04/01 09:50:38;;;;;;;;;3.75;3.00;;;;;14.95;35.25;96565.25;4897909;28;102016;-91
2022/04/01 09:53:19;;;;;;;;;2.75;2.75;;;;;14.95;35.12;96571.47;4874771;28;102148;-91
2022/04/01 09:55:47;;;;;;;;;2.75;2.75;;;;;14.95;35.19;96571.47;4896683;28;103445;-92
2022/04/01 09:58:16;;;;;;;;;3.00;3.00;;;;;14.96;35.18;96573.09;4885684;28;102297;-91
2022/04/01 10:00:44;;;;;;;;;3.00;2.00;;;;;14.97;35.14;96579.38;4902390;28;102208;-92
2022/04/01 10:03:12;;;;;;;;;3.00;2.25;;;;;14.98;34.94;96581.81;4889520;28;101805;-91
2022/04/01 10:05:40;;;;;;;;;3.00;1.50;;;;;14.97;35.08;96580.19;4890783;28;103173;-91
2022/04/01 10:08:08;;;;;;;;;5.00;3.00;;;;;14.95;35.56;96571.47;4899666;28;102203;-92
2022/04/01 10:10:37;;;;;;;;;3.00;3.00;;;;;14.96;34.91;96572.28;4904668;28;102275;-92
2022/04/01 10:13:11;;;;;;;;;3.50;3.00;;;;;14.96;35.11;96572.28;4897608;28;102297;-91
2022/04/01 10:15:39;;;;;;;;;2.75;2.75;;;;;14.96;35.02;96578.53;4897548;28;103673;-91
2022/04/01 10:18:06;;;;;;;;;4.50;3.25;;;;;14.96;35.05;96577.72;4869475;28;102099;-92
2022/04/01 10:20:37;;;;;;;;;3.25;3.00;;;;;14.98;34.76;96576.38;4879662;28;102312;-92
2022/04/01 10:23:11;;;;;;;;;3.00;2.00;;;;;14.97;35.37;96577.47;4888327;28;101862;-92
2022/04/01 10:25:47;;;;;;;;;3.00;3.00;;;;;14.96;35.28;96562.22;4894704;28;103159;-92
2022/04/01 10:28:14;;;;;;;;;4.00;3.25;;;;;14.98;34.64;96573.66;4880135;28;102455;-92
2022/04/01 10:30:50;;;;;;;;;3.00;3.00;;;;;14.97;34.56;96576.66;4884629;28;102251;-91
2022/04/01 10:33:22;;;;;;;;;3.00;2.00;;;;;14.98;34.83;96576.38;4873193;28;101830;-92
2022/04/01 10:35:49;;;;;;;;;3.00;2.75;;;;;14.97;35.10;96554.88;4886583;28;103410;-91
2022/04/01 10:38:19;;;;;;;;;2.00;2.00;;;;;14.98;35.25;96568.22;4884417;28;102331;-92
2022/04/01 10:40:49;;;;;;;;;2.25;2.25;;;;;14.99;34.94;96571.75;4902565;28;101804;-92
2022/04/01 10:43:16;;;;;;;;;4.00;3.00;;;;;14.98;34.79;96570.13;4876492;28;101840;-92
2022/04/01 10:46:14;;;;;;;;;2.00;2.00;;;;;14.99;34.57;96577.19;4889758;28;103672;-92
2022/04/01 10:52:12;;;;;;;;;2.75;2.75;;;;;15.00;34.06;96585.06;4892802;28;101975;-92
2022/04/01 10:54:43;;;;;;;;;2.75;2.75;;;;;14.99;34.29;96588.91;4907084;28;101796;-92
2022/04/01 10:57:31;;;;;;;;;5.00;3.00;;;;;15.00;35.04;96587.78;4875052;28;103388;-92
2022/04/01 10:59:59;;;;;;;;;2.00;2.00;;;;;15.01;34.90;96583.97;4883381;28;102317;-92
2022/04/01 11:02:27;;;;;;;;;2.25;2.25;;;;;15.00;34.50;96590.50;4895163;28;102193;-91
2022/04/01 11:04:54;;;;;;;;;3.00;2.75;;;;;14.99;34.46;96597.06;4872202;28;102110;-80
2022/04/01 11:07:23;;;;;;;;;3.50;3.50;;;;;15.03;38.49;96594.59;4886850;28;103794;-80
2022/04/01 11:09:54;;;;;;;;;11.75;10.25;;;;;15.14;42.00;96594.25;4898243;28;104853;-79
2022/04/01 11:12:42;;;;;;;;;23.00;17.75;;;;;15.25;43.73;96592.31;4889792;28;102173;-81
2022/04/01 11:15:11;;;;;;;;;26.25;21.00;;;;;15.38;45.55;96596.34;4894783;28;102251;-81
2022/04/01 11:17:38;;;;;;;;;27.75;24.25;;;;;15.48;44.45;96607.19;4891739;28;103382;-85
2022/04/01 11:20:06;;;;;;;;;27.75;27.25;;;;;15.55;44.08;96608.53;4885989;28;101841;-92
2022/04/01 11:22:46;;;;;;;;;35.00;29.50;;;;;15.56;44.04;96609.34;4889730;28;101690;-92
2022/04/01 11:25:22;;;;;;;;;42.25;33.25;;;;;15.58;43.72;96604.41;4905752;28;102187;-92
2022/04/01 11:27:55;;;;;;;;;39.50;31.50;;;;;15.60;45.51;96604.94;4895985;28;103500;-92
2022/04/01 11:30:27;;;;;;;;;42.75;33.25;;;;;15.61;45.01;96604.69;4885278;28;102223;-92
2022/04/01 11:32:58;;;;;;;;;41.25;33.00;;;;;15.62;44.84;96608.22;4889024;28;101957;-92
2022/04/01 11:35:32;;;;;;;;;42.00;33.50;;;;;15.63;43.96;96607.91;4888747;28;102328;-91
2022/04/01 11:37:59;;;;;;;;;35.25;31.50;;;;;15.64;43.69;96606.00;4891528;28;107962;-91
2022/04/01 11:40:31;;;;;;;;;33.25;28.75;;;;;15.65;43.37;96606.84;4890264;28;103044;-91
2022/04/01 11:43:02;;;;;;;;;36.00;29.50;;;;;15.66;42.87;96603.84;4881767;28;103195;-92
2022/04/01 11:45:56;;;;;;;;;40.00;30.75;;;;;15.66;42.95;96606.56;4898864;28;101942;-91